sensor_id;sensor_type;location;lat;lon;timestamp;P1;durP1;ratioP1;P2;durP2;ratioP2
73557;SDS011;61829;53.286;10.434;2023-03-23T00:01:01;7.45;;;2.65;;
73557;SDS011;61829;53.286;10.434;2023-03-23T00:03:27;6.95;;;2.72;;
73557;SDS011;61829;53.286;10.434;2023-03-23T00:05:54;5.25;;;2.53;;
73557;SDS011;61829;53.286;10.434;2023-03-23T00:08:28;6.43;;;2.55;;
73557;SDS011;61829;53.286;10.434;2023-03-23T00:10:53;7.35;;;2.85;;
73557;SDS011;61829;53.286;10.434;2023-03-23T00:13:23;5.88;;;2.65;;
73557;SDS011;61829;53.286;10.434;2023-03-23T00:15:49;7.68;;;2.78;;
73557;SDS011;61829;53.286;10.434;2023-03-23T00:18:17;8.60;;;2.88;;
73557;SDS011;61829;53.286;10.434;2023-03-23T00:20:48;8.80;;;2.90;;
73557;SDS011;61829;53.286;10.434;2023-03-23T00:23:15;5.53;;;2.90;;
73557;SDS011;61829;53.286;10.434;2023-03-23T00:25:46;7.88;;;2.72;;
73557;SDS011;61829;53.286;10.434;2023-03-23T00:28:14;9.05;;;3.22;;
73557;SDS011;61829;53.286;10.434;2023-03-23T00:30:41;8.05;;;2.85;;
73557;SDS011;61829;53.286;10.434;2023-03-23T00:33:07;9.98;;;3.03;;
73557;SDS011;61829;53.286;10.434;2023-03-23T00:35:39;10.57;;;2.88;;
73557;SDS011;61829;53.286;10.434;2023-03-23T00:38:05;7.03;;;2.80;;
73557;SDS011;61829;53.286;10.434;2023-03-23T00:40:31;10.68;;;3.50;;
73557;SDS011;61829;53.286;10.434;2023-03-23T00:43:01;10.80;;;4.72;;
73557;SDS011;61829;53.286;10.434;2023-03-23T00:45:29;13.07;;;4.85;;
73557;SDS011;61829;53.286;10.434;2023-03-23T00:47:55;7.50;;;3.70;;
73557;SDS011;61829;53.286;10.434;2023-03-23T00:52:47;7.72;;;3.70;;
73557;SDS011;61829;53.286;10.434;2023-03-23T00:55:18;7.97;;;4.18;;
73557;SDS011;61829;53.286;10.434;2023-03-23T00:57:43;9.02;;;3.70;;
73557;SDS011;61829;53.286;10.434;2023-03-23T01:00:09;10.93;;;4.70;;
73557;SDS011;61829;53.286;10.434;2023-03-23T01:02:36;10.18;;;4.35;;
73557;SDS011;61829;53.286;10.434;2023-03-23T01:05:02;8.35;;;4.15;;
73557;SDS011;61829;53.286;10.434;2023-03-23T01:07:28;7.35;;;3.67;;
73557;SDS011;61829;53.286;10.434;2023-03-23T01:09:56;8.85;;;4.13;;
73557;SDS011;61829;53.286;10.434;2023-03-23T01:12:23;6.63;;;3.38;;
73557;SDS011;61829;53.286;10.434;2023-03-23T01:14:50;10.23;;;3.85;;
73557;SDS011;61829;53.286;10.434;2023-03-23T01:17:16;9.00;;;3.83;;
73557;SDS011;61829;53.286;10.434;2023-03-23T01:19:44;8.27;;;4.35;;
73557;SDS011;61829;53.286;10.434;2023-03-23T01:22:09;11.50;;;4.25;;
73557;SDS011;61829;53.286;10.434;2023-03-23T01:24:35;7.80;;;4.20;;
73557;SDS011;61829;53.286;10.434;2023-03-23T01:27:01;10.25;;;4.53;;
73557;SDS011;61829;53.286;10.434;2023-03-23T01:29:33;10.82;;;4.55;;
73557;SDS011;61829;53.286;10.434;2023-03-23T01:31:59;11.85;;;4.57;;
73557;SDS011;61829;53.286;10.434;2023-03-23T01:34:25;9.20;;;4.60;;
73557;SDS011;61829;53.286;10.434;2023-03-23T01:36:51;7.70;;;3.90;;
73557;SDS011;61829;53.286;10.434;2023-03-23T01:39:17;9.82;;;4.18;;
73557;SDS011;61829;53.286;10.434;2023-03-23T01:41:42;7.65;;;4.00;;
73557;SDS011;61829;53.286;10.434;2023-03-23T01:46:43;8.65;;;3.72;;
73557;SDS011;61829;53.286;10.434;2023-03-23T01:51:43;8.98;;;4.05;;
73557;SDS011;61829;53.286;10.434;2023-03-23T01:54:20;7.38;;;4.43;;
73557;SDS011;61829;53.286;10.434;2023-03-23T01:56:52;9.10;;;3.83;;
73557;SDS011;61829;53.286;10.434;2023-03-23T01:59:22;9.60;;;4.35;;
73557;SDS011;61829;53.286;10.434;2023-03-23T02:01:49;11.73;;;4.45;;
73557;SDS011;61829;53.286;10.434;2023-03-23T02:04:17;10.85;;;4.28;;
73557;SDS011;61829;53.286;10.434;2023-03-23T02:06:44;8.57;;;4.32;;
73557;SDS011;61829;53.286;10.434;2023-03-23T02:09:14;11.15;;;4.55;;
73557;SDS011;61829;53.286;10.434;2023-03-23T02:11:42;9.40;;;4.60;;
73557;SDS011;61829;53.286;10.434;2023-03-23T02:19:48;9.75;;;4.28;;
73557;SDS011;61829;53.286;10.434;2023-03-23T02:33:47;10.10;;;4.45;;
73557;SDS011;61829;53.286;10.434;2023-03-23T02:36:28;11.32;;;4.18;;
73557;SDS011;61829;53.286;10.434;2023-03-23T02:39:01;10.10;;;4.70;;
73557;SDS011;61829;53.286;10.434;2023-03-23T02:41:30;9.68;;;4.90;;
73557;SDS011;61829;53.286;10.434;2023-03-23T02:44:02;7.72;;;4.07;;
73557;SDS011;61829;53.286;10.434;2023-03-23T02:46:29;8.45;;;4.65;;
73557;SDS011;61829;53.286;10.434;2023-03-23T02:48:55;10.10;;;4.93;;
73557;SDS011;61829;53.286;10.434;2023-03-23T02:51:24;9.00;;;4.80;;
73557;SDS011;61829;53.286;10.434;2023-03-23T02:53:52;8.45;;;4.30;;
73557;SDS011;61829;53.286;10.434;2023-03-23T02:56:21;9.88;;;4.93;;
73557;SDS011;61829;53.286;10.434;2023-03-23T02:58:50;8.25;;;4.85;;
73557;SDS011;61829;53.286;10.434;2023-03-23T03:03:51;9.40;;;4.72;;
73557;SDS011;61829;53.286;10.434;2023-03-23T03:06:26;8.75;;;4.85;;
73557;SDS011;61829;53.286;10.434;2023-03-23T03:09:21;7.60;;;4.97;;
73557;SDS011;61829;53.286;10.434;2023-03-23T03:12:09;8.30;;;4.78;;
73557;SDS011;61829;53.286;10.434;2023-03-23T03:14:51;9.50;;;5.20;;
73557;SDS011;61829;53.286;10.434;2023-03-23T03:17:28;8.27;;;5.20;;
73557;SDS011;61829;53.286;10.434;2023-03-23T03:19:57;11.02;;;4.95;;
73557;SDS011;61829;53.286;10.434;2023-03-23T03:22:32;8.90;;;5.13;;
73557;SDS011;61829;53.286;10.434;2023-03-23T03:24:59;9.73;;;5.00;;
73557;SDS011;61829;53.286;10.434;2023-03-23T03:27:26;10.02;;;5.38;;
73557;SDS011;61829;53.286;10.434;2023-03-23T03:29:57;8.63;;;5.05;;
73557;SDS011;61829;53.286;10.434;2023-03-23T03:32:28;8.65;;;5.25;;
73557;SDS011;61829;53.286;10.434;2023-03-23T03:35:02;8.18;;;5.03;;
73557;SDS011;61829;53.286;10.434;2023-03-23T03:37:35;9.63;;;5.35;;
73557;SDS011;61829;53.286;10.434;2023-03-23T03:40:06;7.28;;;5.25;;
73557;SDS011;61829;53.286;10.434;2023-03-23T03:42:40;7.47;;;4.85;;
73557;SDS011;61829;53.286;10.434;2023-03-23T03:45:08;9.85;;;5.38;;
73557;SDS011;61829;53.286;10.434;2023-03-23T03:47:35;9.88;;;5.43;;
73557;SDS011;61829;53.286;10.434;2023-03-23T03:50:01;11.18;;;5.85;;
73557;SDS011;61829;53.286;10.434;2023-03-23T03:52:27;9.10;;;5.40;;
73557;SDS011;61829;53.286;10.434;2023-03-23T03:54:53;8.77;;;5.25;;
73557;SDS011;61829;53.286;10.434;2023-03-23T03:57:19;11.18;;;5.65;;
73557;SDS011;61829;53.286;10.434;2023-03-23T03:59:44;7.55;;;5.18;;
73557;SDS011;61829;53.286;10.434;2023-03-23T04:02:11;8.60;;;5.35;;
73557;SDS011;61829;53.286;10.434;2023-03-23T04:04:40;8.60;;;5.82;;
73557;SDS011;61829;53.286;10.434;2023-03-23T04:07:07;13.48;;;6.57;;
73557;SDS011;61829;53.286;10.434;2023-03-23T04:09:36;7.82;;;5.20;;
73557;SDS011;61829;53.286;10.434;2023-03-23T04:12:03;9.15;;;6.07;;
73557;SDS011;61829;53.286;10.434;2023-03-23T04:14:29;8.98;;;5.40;;
73557;SDS011;61829;53.286;10.434;2023-03-23T04:16:55;10.55;;;6.13;;
73557;SDS011;61829;53.286;10.434;2023-03-23T04:19:22;9.20;;;6.25;;
73557;SDS011;61829;53.286;10.434;2023-03-23T04:21:49;10.32;;;6.13;;
73557;SDS011;61829;53.286;10.434;2023-03-23T04:24:15;11.77;;;6.45;;
73557;SDS011;61829;53.286;10.434;2023-03-23T04:26:41;10.40;;;5.90;;
73557;SDS011;61829;53.286;10.434;2023-03-23T04:29:08;10.05;;;5.82;;
73557;SDS011;61829;53.286;10.434;2023-03-23T04:31:34;8.70;;;5.68;;
73557;SDS011;61829;53.286;10.434;2023-03-23T04:34:00;12.60;;;5.50;;
73557;SDS011;61829;53.286;10.434;2023-03-23T04:36:27;10.30;;;5.93;;
73557;SDS011;61829;53.286;10.434;2023-03-23T04:38:59;8.30;;;5.32;;
73557;SDS011;61829;53.286;10.434;2023-03-23T04:41:26;9.95;;;6.05;;
73557;SDS011;61829;53.286;10.434;2023-03-23T04:43:52;7.32;;;5.03;;
73557;SDS011;61829;53.286;10.434;2023-03-23T04:46:22;7.47;;;5.07;;
73557;SDS011;61829;53.286;10.434;2023-03-23T04:48:48;8.75;;;4.97;;
73557;SDS011;61829;53.286;10.434;2023-03-23T04:51:14;10.30;;;4.75;;
73557;SDS011;61829;53.286;10.434;2023-03-23T04:53:39;9.18;;;5.70;;
73557;SDS011;61829;53.286;10.434;2023-03-23T04:56:06;8.13;;;5.10;;
73557;SDS011;61829;53.286;10.434;2023-03-23T04:58:32;7.28;;;4.22;;
73557;SDS011;61829;53.286;10.434;2023-03-23T05:01:02;7.28;;;4.70;;
73557;SDS011;61829;53.286;10.434;2023-03-23T05:03:29;11.98;;;4.93;;
73557;SDS011;61829;53.286;10.434;2023-03-23T05:05:56;7.28;;;4.65;;
73557;SDS011;61829;53.286;10.434;2023-03-23T05:08:22;8.02;;;4.35;;
73557;SDS011;61829;53.286;10.434;2023-03-23T05:10:56;9.65;;;4.75;;
73557;SDS011;61829;53.286;10.434;2023-03-23T05:13:23;7.90;;;4.28;;
73557;SDS011;61829;53.286;10.434;2023-03-23T05:15:49;7.30;;;4.28;;
73557;SDS011;61829;53.286;10.434;2023-03-23T05:18:15;8.27;;;4.40;;
73557;SDS011;61829;53.286;10.434;2023-03-23T05:20:42;8.95;;;3.72;;
73557;SDS011;61829;53.286;10.434;2023-03-23T05:23:08;9.32;;;4.28;;
73557;SDS011;61829;53.286;10.434;2023-03-23T05:28:02;9.45;;;3.97;;
73557;SDS011;61829;53.286;10.434;2023-03-23T05:30:28;7.53;;;3.45;;
73557;SDS011;61829;53.286;10.434;2023-03-23T05:32:55;9.77;;;3.72;;
73557;SDS011;61829;53.286;10.434;2023-03-23T05:35:21;7.07;;;3.55;;
73557;SDS011;61829;53.286;10.434;2023-03-23T05:37:47;5.15;;;3.42;;
73557;SDS011;61829;53.286;10.434;2023-03-23T05:40:13;5.97;;;3.80;;
73557;SDS011;61829;53.286;10.434;2023-03-23T05:42:40;8.75;;;4.35;;
73557;SDS011;61829;53.286;10.434;2023-03-23T05:45:07;6.13;;;3.72;;
73557;SDS011;61829;53.286;10.434;2023-03-23T05:47:36;6.32;;;3.40;;
73557;SDS011;61829;53.286;10.434;2023-03-23T05:50:03;5.28;;;3.30;;
73557;SDS011;61829;53.286;10.434;2023-03-23T05:52:31;5.57;;;3.42;;
73557;SDS011;61829;53.286;10.434;2023-03-23T05:55:00;9.48;;;3.70;;
73557;SDS011;61829;53.286;10.434;2023-03-23T05:57:28;5.60;;;3.20;;
73557;SDS011;61829;53.286;10.434;2023-03-23T05:59:55;6.18;;;3.13;;
73557;SDS011;61829;53.286;10.434;2023-03-23T06:04:53;5.15;;;2.92;;
73557;SDS011;61829;53.286;10.434;2023-03-23T06:07:24;6.03;;;3.20;;
73557;SDS011;61829;53.286;10.434;2023-03-23T06:09:51;6.00;;;3.00;;
73557;SDS011;61829;53.286;10.434;2023-03-23T06:12:18;8.38;;;3.42;;
73557;SDS011;61829;53.286;10.434;2023-03-23T06:14:46;5.43;;;3.00;;
73557;SDS011;61829;53.286;10.434;2023-03-23T06:17:15;6.53;;;2.95;;
73557;SDS011;61829;53.286;10.434;2023-03-23T06:19:43;6.82;;;2.67;;
73557;SDS011;61829;53.286;10.434;2023-03-23T06:22:12;5.03;;;2.78;;
73557;SDS011;61829;53.286;10.434;2023-03-23T06:24:38;8.25;;;3.30;;
73557;SDS011;61829;53.286;10.434;2023-03-23T06:27:04;4.22;;;2.80;;
73557;SDS011;61829;53.286;10.434;2023-03-23T06:29:30;3.90;;;2.45;;
73557;SDS011;61829;53.286;10.434;2023-03-23T06:31:58;5.93;;;2.70;;
73557;SDS011;61829;53.286;10.434;2023-03-23T06:34:26;4.47;;;2.70;;
73557;SDS011;61829;53.286;10.434;2023-03-23T06:36:51;6.10;;;2.65;;
73557;SDS011;61829;53.286;10.434;2023-03-23T06:39:17;6.82;;;2.78;;
73557;SDS011;61829;53.286;10.434;2023-03-23T06:41:43;3.88;;;2.17;;
73557;SDS011;61829;53.286;10.434;2023-03-23T06:44:09;5.40;;;2.25;;
73557;SDS011;61829;53.286;10.434;2023-03-23T06:46:38;5.90;;;2.20;;
73557;SDS011;61829;53.286;10.434;2023-03-23T06:49:05;4.05;;;2.40;;
73557;SDS011;61829;53.286;10.434;2023-03-23T06:51:31;3.35;;;1.98;;
73557;SDS011;61829;53.286;10.434;2023-03-23T06:53:58;5.70;;;2.38;;
73557;SDS011;61829;53.286;10.434;2023-03-23T06:56:24;5.28;;;2.13;;
73557;SDS011;61829;53.286;10.434;2023-03-23T06:58:50;4.53;;;2.15;;
73557;SDS011;61829;53.286;10.434;2023-03-23T07:01:16;3.95;;;1.98;;
73557;SDS011;61829;53.286;10.434;2023-03-23T07:03:42;6.18;;;2.35;;
73557;SDS011;61829;53.286;10.434;2023-03-23T07:06:08;3.88;;;2.10;;
73557;SDS011;61829;53.286;10.434;2023-03-23T07:08:36;5.20;;;2.20;;
73557;SDS011;61829;53.286;10.434;2023-03-23T07:11:02;4.30;;;2.42;;
73557;SDS011;61829;53.286;10.434;2023-03-23T07:13:31;3.40;;;1.90;;
73557;SDS011;61829;53.286;10.434;2023-03-23T07:15:56;3.90;;;2.08;;
73557;SDS011;61829;53.286;10.434;2023-03-23T07:18:26;3.90;;;1.90;;
73557;SDS011;61829;53.286;10.434;2023-03-23T07:23:19;3.65;;;1.98;;
73557;SDS011;61829;53.286;10.434;2023-03-23T07:25:45;4.47;;;1.80;;
73557;SDS011;61829;53.286;10.434;2023-03-23T07:28:14;4.05;;;2.03;;
73557;SDS011;61829;53.286;10.434;2023-03-23T07:30:41;2.80;;;1.80;;
73557;SDS011;61829;53.286;10.434;2023-03-23T07:33:07;3.88;;;2.00;;
73557;SDS011;61829;53.286;10.434;2023-03-23T07:35:33;5.32;;;1.75;;
73557;SDS011;61829;53.286;10.434;2023-03-23T07:38:01;3.97;;;1.80;;
73557;SDS011;61829;53.286;10.434;2023-03-23T07:40:27;4.13;;;1.80;;
73557;SDS011;61829;53.286;10.434;2023-03-23T07:42:55;4.18;;;1.88;;
73557;SDS011;61829;53.286;10.434;2023-03-23T07:45:22;4.82;;;2.22;;
73557;SDS011;61829;53.286;10.434;2023-03-23T07:47:49;6.00;;;1.80;;
73557;SDS011;61829;53.286;10.434;2023-03-23T07:50:15;5.95;;;2.10;;
73557;SDS011;61829;53.286;10.434;2023-03-23T07:52:42;4.32;;;2.10;;
73557;SDS011;61829;53.286;10.434;2023-03-23T07:55:09;7.28;;;2.38;;
73557;SDS011;61829;53.286;10.434;2023-03-23T07:57:46;3.78;;;2.17;;
73557;SDS011;61829;53.286;10.434;2023-03-23T08:00:15;3.80;;;1.90;;
73557;SDS011;61829;53.286;10.434;2023-03-23T08:02:55;4.07;;;2.10;;
73557;SDS011;61829;53.286;10.434;2023-03-23T08:05:23;3.47;;;1.88;;
73557;SDS011;61829;53.286;10.434;2023-03-23T08:07:51;5.50;;;2.33;;
73557;SDS011;61829;53.286;10.434;2023-03-23T08:10:21;4.38;;;2.05;;
73557;SDS011;61829;53.286;10.434;2023-03-23T08:12:52;6.70;;;1.98;;
73557;SDS011;61829;53.286;10.434;2023-03-23T08:15:23;3.90;;;2.10;;
73557;SDS011;61829;53.286;10.434;2023-03-23T08:17:49;5.20;;;2.40;;
73557;SDS011;61829;53.286;10.434;2023-03-23T08:20:16;4.75;;;3.10;;
73557;SDS011;61829;53.286;10.434;2023-03-23T08:22:45;3.47;;;1.83;;
73557;SDS011;61829;53.286;10.434;2023-03-23T08:25:18;4.97;;;2.20;;
73557;SDS011;61829;53.286;10.434;2023-03-23T08:27:45;6.97;;;1.85;;
73557;SDS011;61829;53.286;10.434;2023-03-23T08:30:12;4.25;;;2.30;;
73557;SDS011;61829;53.286;10.434;2023-03-23T08:32:43;4.05;;;1.80;;
73557;SDS011;61829;53.286;10.434;2023-03-23T08:35:11;4.85;;;2.40;;
73557;SDS011;61829;53.286;10.434;2023-03-23T08:37:38;3.42;;;1.98;;
73557;SDS011;61829;53.286;10.434;2023-03-23T08:40:05;2.92;;;1.60;;
73557;SDS011;61829;53.286;10.434;2023-03-23T08:42:36;4.18;;;1.70;;
73557;SDS011;61829;53.286;10.434;2023-03-23T08:45:07;3.03;;;1.67;;
73557;SDS011;61829;53.286;10.434;2023-03-23T08:47:36;5.35;;;2.20;;
73557;SDS011;61829;53.286;10.434;2023-03-23T08:50:06;7.05;;;2.20;;
73557;SDS011;61829;53.286;10.434;2023-03-23T08:52:34;3.08;;;1.60;;
73557;SDS011;61829;53.286;10.434;2023-03-23T08:55:00;3.25;;;1.80;;
73557;SDS011;61829;53.286;10.434;2023-03-23T08:57:27;3.65;;;1.50;;
73557;SDS011;61829;53.286;10.434;2023-03-23T08:59:52;3.20;;;1.80;;
73557;SDS011;61829;53.286;10.434;2023-03-23T09:02:26;4.10;;;1.80;;
73557;SDS011;61829;53.286;10.434;2023-03-23T09:04:53;4.20;;;1.95;;
73557;SDS011;61829;53.286;10.434;2023-03-23T09:07:19;3.35;;;1.65;;
73557;SDS011;61829;53.286;10.434;2023-03-23T09:09:45;5.88;;;2.10;;
73557;SDS011;61829;53.286;10.434;2023-03-23T09:12:12;4.47;;;1.92;;
73557;SDS011;61829;53.286;10.434;2023-03-23T09:14:39;3.70;;;2.20;;
73557;SDS011;61829;53.286;10.434;2023-03-23T09:17:05;4.50;;;2.00;;
73557;SDS011;61829;53.286;10.434;2023-03-23T09:19:33;5.50;;;1.83;;
73557;SDS011;61829;53.286;10.434;2023-03-23T09:22:00;3.67;;;2.00;;
73557;SDS011;61829;53.286;10.434;2023-03-23T09:24:27;5.18;;;2.22;;
73557;SDS011;61829;53.286;10.434;2023-03-23T09:26:53;4.50;;;2.20;;
73557;SDS011;61829;53.286;10.434;2023-03-23T09:29:19;5.07;;;2.10;;
73557;SDS011;61829;53.286;10.434;2023-03-23T09:31:46;5.13;;;2.00;;
73557;SDS011;61829;53.286;10.434;2023-03-23T09:34:13;7.57;;;2.20;;
73557;SDS011;61829;53.286;10.434;2023-03-23T09:36:43;4.65;;;2.10;;
73557;SDS011;61829;53.286;10.434;2023-03-23T09:39:09;4.13;;;2.05;;
73557;SDS011;61829;53.286;10.434;2023-03-23T09:41:54;4.53;;;1.80;;
73557;SDS011;61829;53.286;10.434;2023-03-23T09:44:30;7.07;;;1.80;;
73557;SDS011;61829;53.286;10.434;2023-03-23T09:47:07;4.57;;;1.70;;
73557;SDS011;61829;53.286;10.434;2023-03-23T09:49:59;6.00;;;2.00;;
73557;SDS011;61829;53.286;10.434;2023-03-23T09:52:46;6.63;;;1.85;;
73557;SDS011;61829;53.286;10.434;2023-03-23T09:55:17;7.05;;;1.70;;
73557;SDS011;61829;53.286;10.434;2023-03-23T09:57:59;6.90;;;1.80;;
73557;SDS011;61829;53.286;10.434;2023-03-23T10:05:36;6.47;;;1.85;;
73557;SDS011;61829;53.286;10.434;2023-03-23T10:08:14;5.38;;;1.63;;
73557;SDS011;61829;53.286;10.434;2023-03-23T10:13:13;4.78;;;1.42;;
73557;SDS011;61829;53.286;10.434;2023-03-23T10:15:45;4.38;;;1.23;;
73557;SDS011;61829;53.286;10.434;2023-03-23T10:20:48;5.68;;;1.58;;
73557;SDS011;61829;53.286;10.434;2023-03-23T10:28:46;10.77;;;1.85;;
73557;SDS011;61829;53.286;10.434;2023-03-23T10:31:25;6.72;;;1.70;;
73557;SDS011;61829;53.286;10.434;2023-03-23T10:33:57;6.53;;;1.63;;
73557;SDS011;61829;53.286;10.434;2023-03-23T10:36:30;4.82;;;1.58;;
73557;SDS011;61829;53.286;10.434;2023-03-23T10:41:34;9.10;;;1.50;;
73557;SDS011;61829;53.286;10.434;2023-03-23T10:49:18;9.93;;;1.88;;
73557;SDS011;61829;53.286;10.434;2023-03-23T10:51:52;5.65;;;1.40;;
73557;SDS011;61829;53.286;10.434;2023-03-23T10:54:26;7.88;;;1.40;;
73557;SDS011;61829;53.286;10.434;2023-03-23T10:56:58;10.50;;;1.60;;
73557;SDS011;61829;53.286;10.434;2023-03-23T10:59:28;8.05;;;1.73;;
73557;SDS011;61829;53.286;10.434;2023-03-23T11:02:00;8.90;;;2.08;;
73557;SDS011;61829;53.286;10.434;2023-03-23T11:04:29;6.25;;;1.65;;
73557;SDS011;61829;53.286;10.434;2023-03-23T11:06:59;9.52;;;2.00;;
73557;SDS011;61829;53.286;10.434;2023-03-23T11:09:36;8.25;;;2.08;;
73557;SDS011;61829;53.286;10.434;2023-03-23T11:12:03;9.20;;;1.90;;
73557;SDS011;61829;53.286;10.434;2023-03-23T11:16:59;5.32;;;1.40;;
73557;SDS011;61829;53.286;10.434;2023-03-23T11:19:28;7.03;;;1.52;;
73557;SDS011;61829;53.286;10.434;2023-03-23T11:21:59;6.93;;;1.65;;
73557;SDS011;61829;53.286;10.434;2023-03-23T11:24:31;6.03;;;1.40;;
73557;SDS011;61829;53.286;10.434;2023-03-23T11:26:59;7.38;;;1.52;;
73557;SDS011;61829;53.286;10.434;2023-03-23T11:29:28;2.42;;;1.10;;
73557;SDS011;61829;53.286;10.434;2023-03-23T11:34:29;6.50;;;1.30;;
73557;SDS011;61829;53.286;10.434;2023-03-23T11:37:03;4.63;;;1.15;;
73557;SDS011;61829;53.286;10.434;2023-03-23T11:39:56;6.05;;;1.48;;
73557;SDS011;61829;53.286;10.434;2023-03-23T11:42:26;4.20;;;1.30;;
73557;SDS011;61829;53.286;10.434;2023-03-23T11:47:41;11.45;;;1.95;;
73557;SDS011;61829;53.286;10.434;2023-03-23T11:50:24;5.35;;;2.30;;
73557;SDS011;61829;53.286;10.434;2023-03-23T11:58:33;7.93;;;1.40;;
73557;SDS011;61829;53.286;10.434;2023-03-23T12:01:34;5.93;;;1.40;;
73557;SDS011;61829;53.286;10.434;2023-03-23T12:04:15;6.00;;;1.63;;
73557;SDS011;61829;53.286;10.434;2023-03-23T12:07:13;6.18;;;1.38;;
73557;SDS011;61829;53.286;10.434;2023-03-23T12:12:11;5.93;;;1.90;;
73557;SDS011;61829;53.286;10.434;2023-03-23T12:31:18;8.23;;;2.00;;
73557;SDS011;61829;53.286;10.434;2023-03-23T12:34:15;5.80;;;1.58;;
73557;SDS011;61829;53.286;10.434;2023-03-23T12:36:53;7.05;;;1.73;;
73557;SDS011;61829;53.286;10.434;2023-03-23T12:55:32;7.18;;;1.70;;
73557;SDS011;61829;53.286;10.434;2023-03-23T12:58:09;4.45;;;1.95;;
73557;SDS011;61829;53.286;10.434;2023-03-23T13:03:28;7.40;;;2.17;;
73557;SDS011;61829;53.286;10.434;2023-03-23T13:06:07;5.28;;;1.80;;
73557;SDS011;61829;53.286;10.434;2023-03-23T13:08:39;8.75;;;1.90;;
73557;SDS011;61829;53.286;10.434;2023-03-23T13:11:15;7.25;;;1.85;;
73557;SDS011;61829;53.286;10.434;2023-03-23T13:13:50;6.40;;;2.00;;
73557;SDS011;61829;53.286;10.434;2023-03-23T13:22:23;7.05;;;2.45;;
73557;SDS011;61829;53.286;10.434;2023-03-23T13:24:57;7.32;;;2.55;;
73557;SDS011;61829;53.286;10.434;2023-03-23T13:27:27;6.03;;;2.00;;
73557;SDS011;61829;53.286;10.434;2023-03-23T13:29:55;7.43;;;2.22;;
73557;SDS011;61829;53.286;10.434;2023-03-23T13:35:03;6.22;;;2.08;;
73557;SDS011;61829;53.286;10.434;2023-03-23T13:37:41;4.40;;;1.60;;
73557;SDS011;61829;53.286;10.434;2023-03-23T13:42:47;3.88;;;1.52;;
73557;SDS011;61829;53.286;10.434;2023-03-23T13:45:36;5.47;;;1.48;;
73557;SDS011;61829;53.286;10.434;2023-03-23T13:53:30;6.30;;;1.58;;
73557;SDS011;61829;53.286;10.434;2023-03-23T14:02:31;4.68;;;1.40;;
73557;SDS011;61829;53.286;10.434;2023-03-23T14:05:23;2.55;;;1.10;;
73557;SDS011;61829;53.286;10.434;2023-03-23T14:08:00;1.70;;;0.88;;
73557;SDS011;61829;53.286;10.434;2023-03-23T14:13:38;3.75;;;1.27;;
73557;SDS011;61829;53.286;10.434;2023-03-23T14:18:54;3.47;;;1.40;;
73557;SDS011;61829;53.286;10.434;2023-03-23T14:24:17;0.95;;;0.73;;
73557;SDS011;61829;53.286;10.434;2023-03-23T14:26:49;3.65;;;1.63;;
73557;SDS011;61829;53.286;10.434;2023-03-23T14:29:18;2.75;;;1.02;;
73557;SDS011;61829;53.286;10.434;2023-03-23T14:31:48;3.33;;;1.23;;
73557;SDS011;61829;53.286;10.434;2023-03-23T14:34:19;2.40;;;1.10;;
73557;SDS011;61829;53.286;10.434;2023-03-23T14:36:47;2.95;;;1.30;;
73557;SDS011;61829;53.286;10.434;2023-03-23T14:41:51;3.47;;;1.08;;
73557;SDS011;61829;53.286;10.434;2023-03-23T14:44:30;2.05;;;0.90;;
73557;SDS011;61829;53.286;10.434;2023-03-23T14:46:58;3.58;;;1.15;;
73557;SDS011;61829;53.286;10.434;2023-03-23T14:49:36;5.30;;;1.10;;
73557;SDS011;61829;53.286;10.434;2023-03-23T14:52:14;4.00;;;1.20;;
73557;SDS011;61829;53.286;10.434;2023-03-23T14:54:42;3.42;;;1.20;;
73557;SDS011;61829;53.286;10.434;2023-03-23T14:57:17;3.90;;;1.10;;
73557;SDS011;61829;53.286;10.434;2023-03-23T14:59:47;2.10;;;1.10;;
73557;SDS011;61829;53.286;10.434;2023-03-23T15:04:47;1.98;;;1.00;;
73557;SDS011;61829;53.286;10.434;2023-03-23T15:07:15;3.13;;;1.10;;
73557;SDS011;61829;53.286;10.434;2023-03-23T15:09:43;3.90;;;1.10;;
73557;SDS011;61829;53.286;10.434;2023-03-23T15:12:24;4.30;;;1.00;;
73557;SDS011;61829;53.286;10.434;2023-03-23T15:14:53;2.78;;;0.95;;
73557;SDS011;61829;53.286;10.434;2023-03-23T15:17:23;3.35;;;1.00;;
73557;SDS011;61829;53.286;10.434;2023-03-23T15:20:08;3.67;;;1.10;;
73557;SDS011;61829;53.286;10.434;2023-03-23T15:22:44;5.97;;;1.30;;
73557;SDS011;61829;53.286;10.434;2023-03-23T15:25:22;2.45;;;0.98;;
73557;SDS011;61829;53.286;10.434;2023-03-23T15:32:47;3.95;;;0.98;;
73557;SDS011;61829;53.286;10.434;2023-03-23T15:35:18;2.50;;;1.23;;
73557;SDS011;61829;53.286;10.434;2023-03-23T15:37:48;3.53;;;0.90;;
73557;SDS011;61829;53.286;10.434;2023-03-23T15:40:17;4.22;;;1.30;;
73557;SDS011;61829;53.286;10.434;2023-03-23T15:42:47;3.47;;;1.50;;
73557;SDS011;61829;53.286;10.434;2023-03-23T15:47:53;2.80;;;0.93;;
73557;SDS011;61829;53.286;10.434;2023-03-23T15:50:20;2.60;;;0.80;;
73557;SDS011;61829;53.286;10.434;2023-03-23T15:52:59;1.10;;;0.80;;
73557;SDS011;61829;53.286;10.434;2023-03-23T15:55:35;1.73;;;0.95;;
73557;SDS011;61829;53.286;10.434;2023-03-23T15:58:09;2.55;;;1.10;;
73557;SDS011;61829;53.286;10.434;2023-03-23T16:00:37;2.85;;;1.08;;
73557;SDS011;61829;53.286;10.434;2023-03-23T16:03:05;3.63;;;1.20;;
73557;SDS011;61829;53.286;10.434;2023-03-23T16:05:33;2.83;;;1.27;;
73557;SDS011;61829;53.286;10.434;2023-03-23T16:07:59;4.13;;;1.05;;
73557;SDS011;61829;53.286;10.434;2023-03-23T16:10:26;4.82;;;1.20;;
73557;SDS011;61829;53.286;10.434;2023-03-23T16:12:53;4.78;;;1.25;;
73557;SDS011;61829;53.286;10.434;2023-03-23T16:15:19;5.10;;;1.55;;
73557;SDS011;61829;53.286;10.434;2023-03-23T16:17:45;6.30;;;1.55;;
73557;SDS011;61829;53.286;10.434;2023-03-23T16:20:13;6.47;;;1.63;;
73557;SDS011;61829;53.286;10.434;2023-03-23T16:22:42;4.35;;;1.23;;
73557;SDS011;61829;53.286;10.434;2023-03-23T16:25:08;5.53;;;1.48;;
73557;SDS011;61829;53.286;10.434;2023-03-23T16:27:35;5.60;;;1.40;;
73557;SDS011;61829;53.286;10.434;2023-03-23T16:30:01;5.28;;;1.30;;
73557;SDS011;61829;53.286;10.434;2023-03-23T16:32:29;4.70;;;1.35;;
73557;SDS011;61829;53.286;10.434;2023-03-23T16:34:55;5.22;;;1.65;;
73557;SDS011;61829;53.286;10.434;2023-03-23T16:37:31;3.65;;;1.02;;
73557;SDS011;61829;53.286;10.434;2023-03-23T16:39:58;3.55;;;1.17;;
73557;SDS011;61829;53.286;10.434;2023-03-23T16:42:24;5.55;;;1.20;;
73557;SDS011;61829;53.286;10.434;2023-03-23T16:44:50;8.30;;;1.30;;
73557;SDS011;61829;53.286;10.434;2023-03-23T16:47:16;3.80;;;1.38;;
73557;SDS011;61829;53.286;10.434;2023-03-23T16:49:47;3.25;;;1.10;;
73557;SDS011;61829;53.286;10.434;2023-03-23T16:52:15;3.72;;;1.23;;
73557;SDS011;61829;53.286;10.434;2023-03-23T16:54:41;3.22;;;1.45;;
73557;SDS011;61829;53.286;10.434;2023-03-23T16:57:08;7.43;;;1.80;;
73557;SDS011;61829;53.286;10.434;2023-03-23T16:59:33;4.70;;;2.20;;
73557;SDS011;61829;53.286;10.434;2023-03-23T17:02:00;6.45;;;1.70;;
73557;SDS011;61829;53.286;10.434;2023-03-23T17:04:28;7.65;;;2.10;;
73557;SDS011;61829;53.286;10.434;2023-03-23T17:06:56;6.40;;;2.40;;
73557;SDS011;61829;53.286;10.434;2023-03-23T17:09:25;5.13;;;2.05;;
73557;SDS011;61829;53.286;10.434;2023-03-23T17:11:52;6.10;;;2.20;;
73557;SDS011;61829;53.286;10.434;2023-03-23T17:14:19;8.23;;;2.63;;
73557;SDS011;61829;53.286;10.434;2023-03-23T17:16:46;10.18;;;2.33;;
73557;SDS011;61829;53.286;10.434;2023-03-23T17:19:12;12.02;;;3.70;;
73557;SDS011;61829;53.286;10.434;2023-03-23T17:21:39;10.57;;;3.55;;